Time;durP1;ratioP1;P1;durP2;ratioP2;P2;SDS_P1;SDS_P2;PMS_P1;PMS_P2;Temp;Humidity;BMP_temperature;BMP_pressure;BME280_temperature;BME280_humidity;BME280_pressure;Samples;Min_cycle;Max_cycle;Signal;HPM_P1;HPM_P2
2023/01/16 00:02:22;;;;;;;12.05;1.65;;;;;;;2.79;76.09;97515.13;4983510;28;20050;-52
2023/01/16 00:04:48;;;;;;;6.32;0.82;;;;;;;2.78;77.01;97516.00;4982999;28;20046;-53
2023/01/16 00:07:15;;;;;;;13.48;1.70;;;;;;;2.78;76.49;97516.00;4983627;28;20650;-50
2023/01/16 00:09:41;;;;;;;7.80;0.93;;;;;;;2.76;76.48;97507.50;4987307;28;20070;-51
2023/01/16 00:12:08;;;;;;;7.45;1.83;;;;;;;2.77;76.17;97509.19;4982730;28;20801;-52
2023/01/16 00:14:35;;;;;;;5.53;1.13;;;;;;;2.76;77.46;97497.28;4983668;28;20061;-53
2023/01/16 00:17:01;;;;;;;4.38;0.82;;;;;;;2.77;76.88;97503.25;4979934;28;20054;-52
2023/01/16 00:19:28;;;;;;;6.65;1.00;;;;;;;2.76;77.28;97504.09;4982465;28;20078;-50
2023/01/16 00:21:54;;;;;;;10.93;1.27;;;;;;;2.75;76.43;97499.84;4983038;28;20141;-52
2023/01/16 00:24:21;;;;;;;8.07;0.77;;;;;;;2.73;77.06;97497.31;4984032;28;20050;-52
2023/01/16 00:26:52;;;;;;;6.50;1.33;;;;;;;2.70;77.04;97497.34;4982381;28;20545;-50
2023/01/16 00:29:18;;;;;;;8.73;1.15;;;;;;;2.67;76.12;97493.13;4980871;28;20470;-53
2023/01/16 00:31:45;;;;;;;5.35;1.05;;;;;;;2.69;76.13;97493.09;4986672;28;20081;-54
2023/01/16 00:34:11;;;;;;;11.73;2.00;;;;;;;2.69;76.73;97485.44;4982380;28;20053;-52
2023/01/16 00:36:39;;;;;;;1.45;0.57;;;;;;;2.70;76.65;97482.00;4985573;28;20066;-51
2023/01/16 00:39:06;;;;;;;10.93;1.30;;;;;;;2.71;76.96;97476.03;4986785;28;20478;-52
2023/01/16 00:41:33;;;;;;;12.75;1.98;;;;;;;2.69;77.25;97459.88;4985210;28;20046;-51
2023/01/16 00:43:59;;;;;;;8.38;1.52;;;;;;;2.70;76.59;97454.75;4986022;28;20073;-52
2023/01/16 00:46:26;;;;;;;9.93;2.05;;;;;;;2.69;77.03;97459.88;4982059;28;20410;-53
2023/01/16 00:48:53;;;;;;;4.00;0.85;;;;;;;2.69;76.67;97452.19;4983815;28;20495;-50
2023/01/16 00:51:19;;;;;;;6.13;1.20;;;;;;;2.69;76.74;97454.75;4982062;28;20078;-50
2023/01/16 00:53:46;;;;;;;9.50;1.25;;;;;;;2.67;76.68;97441.16;4984013;28;20046;-51
2023/01/16 00:56:13;;;;;;;8.48;1.92;;;;;;;2.68;77.33;97442.84;4980883;28;20670;-49
2023/01/16 00:58:39;;;;;;;5.32;1.05;;;;;;;2.66;76.53;97434.34;4981743;28;20077;-50
2023/01/16 01:01:06;;;;;;;7.78;1.42;;;;;;;2.66;76.44;97434.34;4984316;28;20104;-49
2023/01/16 01:03:33;;;;;;;6.32;0.90;;;;;;;2.64;77.16;97421.59;4980095;28;20054;-53
2023/01/16 01:06:05;;;;;;;3.95;1.13;;;;;;;2.62;76.42;97423.31;4977252;28;20542;-53
2023/01/16 01:08:31;;;;;;;4.15;1.60;;;;;;;2.61;76.28;97415.69;4982067;28;20053;-51
2023/01/16 01:11:06;;;;;;;3.78;1.40;;;;;;;2.57;76.33;97413.16;4985059;28;20680;-51
2023/01/16 01:13:33;;;;;;;8.95;1.52;;;;;;;2.57;76.47;97405.50;4983436;28;20073;-53
2023/01/16 01:15:59;;;;;;;6.07;0.95;;;;;;;2.56;77.23;97403.81;4984409;28;20581;-49
2023/01/16 01:18:26;;;;;;;5.97;1.35;;;;;;;2.55;77.22;97404.69;4978320;28;20058;-52
2023/01/16 01:20:52;;;;;;;7.07;0.93;;;;;;;2.55;77.01;97402.13;4986260;28;20108;-53
2023/01/16 01:23:19;;;;;;;6.80;1.15;;;;;;;2.56;77.14;97398.69;4984089;28;20697;-52
2023/01/16 01:25:45;;;;;;;11.02;1.60;;;;;;;2.55;76.16;97391.91;4984217;28;20072;-49
2023/01/16 01:28:12;;;;;;;3.85;0.98;;;;;;;2.55;76.12;97389.34;4980031;28;20109;-53
2023/01/16 01:30:39;;;;;;;3.45;0.65;;;;;;;2.54;76.24;97387.63;4983483;28;20050;-52
2023/01/16 01:33:05;;;;;;;2.28;1.08;;;;;;;2.53;76.95;97383.41;4986183;28;20120;-53
2023/01/16 01:35:32;;;;;;;3.83;0.63;;;;;;;2.50;76.04;97372.38;4986697;28;20042;-49
2023/01/16 01:37:59;;;;;;;5.57;1.55;;;;;;;2.46;75.88;97360.53;4985726;28;20046;-52
2023/01/16 01:40:26;;;;;;;9.43;1.98;;;;;;;2.42;75.39;97365.66;4990033;28;20050;-53
2023/01/16 01:42:53;;;;;;;3.95;1.08;;;;;;;2.39;75.93;97352.06;4983786;28;20049;-52
2023/01/16 01:45:24;;;;;;;5.97;0.95;;;;;;;2.40;76.38;97346.13;4984409;28;20486;-50
2023/01/16 01:50:52;;;;;;;8.07;1.60;;;;;;;2.39;75.81;97334.19;4996046;27;20408;-52
2023/01/16 01:53:41;;;;;;;8.55;2.10;;;;;;;2.36;76.78;97334.25;4995821;28;20084;-49
2023/01/16 01:56:14;;;;;;;6.68;2.35;;;;;;;2.38;76.39;97330.81;4990757;28;20663;-51
2023/01/16 01:58:43;;;;;;;8.95;2.70;;;;;;;2.38;76.01;97320.59;4995371;28;20046;-50
2023/01/16 02:01:10;;;;;;;6.28;2.60;;;;;;;2.39;76.07;97323.97;4989213;28;20549;-52
2023/01/16 02:03:41;;;;;;;3.83;1.65;;;;;;;2.39;77.02;97319.72;4984288;28;20166;-51
2023/01/16 02:06:15;;;;;;;5.10;2.47;;;;;;;2.38;75.98;97310.38;4993807;28;20046;-52
2023/01/16 02:08:44;;;;;;;6.50;2.65;;;;;;;2.38;76.43;97307.81;4992933;28;20078;-50
2023/01/16 02:11:26;;;;;;;4.40;2.00;;;;;;;2.37;76.76;97301.03;4990470;28;20118;-52
2023/01/16 02:14:00;;;;;;;7.90;2.45;;;;;;;2.37;76.50;97300.16;4995877;28;20966;-52
2023/01/16 02:19:24;;;;;;;8.82;1.92;;;;;;;2.34;75.83;97285.72;4980696;28;20102;-50
2023/01/16 02:27:56;;;;;;;10.20;2.72;;;;;;;2.48;75.59;97282.13;5069077;27;20397;-50
2023/01/16 02:41:11;;;;;;;6.20;1.27;;;;;;;2.33;76.00;97262.75;5026447;27;20909;-53
2023/01/16 02:44:09;;;;;;;5.18;1.08;;;;;;;2.26;75.93;97251.81;5014998;28;20050;-51
2023/01/16 02:49:40;;;;;;;7.70;1.58;;;;;;;2.20;75.84;97245.06;5032302;28;20409;-50
2023/01/16 02:52:25;;;;;;;5.07;1.23;;;;;;;2.20;76.70;97232.31;5019517;28;20041;-52
2023/01/16 02:55:00;;;;;;;7.07;2.38;;;;;;;2.20;76.48;97226.34;5016450;28;20042;-50
2023/01/16 02:57:33;;;;;;;5.70;1.50;;;;;;;2.20;76.73;97222.09;5017395;28;20049;-53
2023/01/16 03:00:03;;;;;;;6.70;1.70;;;;;;;2.19;75.93;97225.47;5018693;28;20744;-52
2023/01/16 03:02:30;;;;;;;5.75;1.48;;;;;;;2.18;76.73;97213.59;5018738;28;20116;-52
2023/01/16 03:04:56;;;;;;;5.18;1.25;;;;;;;2.17;77.19;97214.47;5013025;28;20046;-52
2023/01/16 03:21:17;;;;;;;4.90;2.90;;;;;;;2.08;76.30;97182.22;5039928;27;20407;-50
2023/01/16 03:26:29;;;;;;;1.98;0.70;;;;;;;2.05;75.87;97172.06;5024336;28;20442;-53
2023/01/16 03:31:57;;;;;;;6.35;1.17;;;;;;;2.02;76.72;97162.75;5033376;27;20402;-51
2023/01/16 03:37:10;;;;;;;8.57;1.23;;;;;;;2.01;76.15;97158.50;5059597;28;20410;-50
2023/01/16 03:39:43;;;;;;;4.30;1.02;;;;;;;2.04;76.39;97158.47;5036732;28;20067;-50
2023/01/16 03:42:15;;;;;;;6.82;1.35;;;;;;;2.03;76.90;97153.38;5035356;28;20041;-51
2023/01/16 03:44:49;;;;;;;7.18;1.63;;;;;;;2.02;75.89;97152.53;5034503;28;20485;-54
2023/01/16 03:47:23;;;;;;;9.65;1.90;;;;;;;2.03;77.16;97154.22;5034791;28;20052;-52
2023/01/16 03:49:54;;;;;;;5.38;1.45;;;;;;;2.01;76.31;97148.31;5037584;28;20072;-50
2023/01/16 03:52:26;;;;;;;5.97;2.08;;;;;;;1.99;76.05;97150.03;5031410;28;20073;-53
2023/01/16 03:55:04;;;;;;;8.30;2.33;;;;;;;1.97;76.81;97144.09;5032735;28;20581;-51
2023/01/16 03:57:39;;;;;;;4.43;1.30;;;;;;;1.97;76.70;97143.25;5034171;28;20701;-50
2023/01/16 04:00:07;;;;;;;7.13;1.40;;;;;;;1.95;76.92;97145.00;5034834;28;20512;-51
2023/01/16 04:02:46;;;;;;;4.47;1.17;;;;;;;1.92;76.35;97135.66;5030843;28;20047;-51
2023/01/16 04:05:18;;;;;;;5.70;1.58;;;;;;;1.89;76.90;97139.09;5029667;28;20041;-53
2023/01/16 04:07:54;;;;;;;5.88;2.00;;;;;;;1.90;76.53;97134.84;5035164;28;20056;-50
2023/01/16 04:10:26;;;;;;;6.10;1.52;;;;;;;1.89;76.93;97130.63;5031842;28;20100;-50
2023/01/16 04:12:58;;;;;;;6.93;2.90;;;;;;;1.89;76.88;97125.50;5031552;28;20045;-50
2023/01/16 04:15:29;;;;;;;11.07;2.30;;;;;;;1.86;77.15;97121.28;5036835;28;20044;-53
2023/01/16 04:17:57;;;;;;;5.80;1.83;;;;;;;1.85;75.97;97124.69;5030483;28;20056;-51
2023/01/16 04:20:26;;;;;;;6.13;2.20;;;;;;;1.86;76.39;97130.66;5028455;28;20053;-53
2023/01/16 04:22:52;;;;;;;5.40;1.83;;;;;;;1.87;76.04;97132.34;5032128;28;20057;-53
2023/01/16 04:25:20;;;;;;;5.97;1.38;;;;;;;1.86;76.47;97130.66;5034046;28;20445;-51
2023/01/16 04:27:46;;;;;;;4.93;1.30;;;;;;;1.87;77.68;97134.88;5031753;28;20041;-54
2023/01/16 04:30:15;;;;;;;7.22;1.20;;;;;;;1.87;77.03;97133.19;5033688;28;20088;-53
2023/01/16 04:32:42;;;;;;;8.55;2.50;;;;;;;1.87;77.51;97133.19;5034753;28;20060;-53
2023/01/16 04:35:09;;;;;;;7.10;1.48;;;;;;;1.84;77.29;97129.81;5030918;28;20123;-52
2023/01/16 04:37:36;;;;;;;7.95;1.20;;;;;;;1.84;76.89;97122.16;5027697;28;20053;-52
2023/01/16 04:40:04;;;;;;;7.32;1.23;;;;;;;1.83;77.94;97120.50;5030374;28;20080;-53
2023/01/16 04:42:30;;;;;;;5.75;1.23;;;;;;;1.82;78.07;97123.91;5033332;28;20100;-51
2023/01/16 04:44:57;;;;;;;3.83;1.35;;;;;;;1.79;78.54;97115.41;5031309;28;20190;-50
2023/01/16 04:47:23;;;;;;;2.33;1.45;;;;;;;1.77;78.57;97119.72;5025619;28;20652;-53
2023/01/16 04:49:50;;;;;;;0.93;0.93;;;;;;;1.74;78.36;97119.75;5017999;28;20120;-50
2023/01/16 04:52:16;;;;;;;4.20;1.25;;;;;;;1.74;80.12;97117.22;5022491;28;20463;-54
2023/01/16 04:54:43;;;;;;;8.70;2.05;;;;;;;1.76;78.79;97110.34;5024019;28;20049;-52
2023/01/16 04:57:10;;;;;;;4.55;1.30;;;;;;;1.75;78.98;97113.78;5018191;28;20536;-52
2023/01/16 04:59:36;;;;;;;8.23;0.95;;;;;;;1.76;78.65;97118.00;5019774;28;20151;-51
2023/01/16 05:02:03;;;;;;;11.32;1.13;;;;;;;1.75;79.39;97118.88;5017674;28;20077;-53
2023/01/16 05:04:30;;;;;;;2.70;0.90;;;;;;;1.72;79.99;97113.00;5015363;28;20055;-53
2023/01/16 05:06:56;;;;;;;3.67;1.50;;;;;;;1.73;80.68;97110.44;5017116;28;20682;-51
2023/01/16 05:09:23;;;;;;;1.88;0.75;;;;;;;1.72;79.75;97108.72;5020490;28;20116;-52
2023/01/16 05:11:49;;;;;;;3.83;2.00;;;;;;;1.73;79.90;97105.31;5020918;28;20058;-54
2023/01/16 05:14:16;;;;;;;3.97;1.30;;;;;;;1.73;80.47;97097.66;5016390;28;20080;-51
2023/01/16 05:16:43;;;;;;;5.20;1.20;;;;;;;1.72;80.99;97097.69;5025558;28;20096;-53
2023/01/16 05:19:10;;;;;;;1.58;1.17;;;;;;;1.70;80.04;97090.06;5020154;28;20053;-50
2023/01/16 05:21:37;;;;;;;3.88;1.23;;;;;;;1.73;81.51;97084.91;5018478;28;20046;-53
2023/01/16 05:24:04;;;;;;;4.25;1.45;;;;;;;1.74;81.00;97091.69;5023337;28;20048;-52
2023/01/16 05:26:31;;;;;;;3.95;1.00;;;;;;;1.72;80.64;97090.03;5020462;28;20164;-53
2023/01/16 05:28:58;;;;;;;5.32;1.48;;;;;;;1.70;81.66;97100.25;5026755;28;20053;-53
2023/01/16 05:31:25;;;;;;;6.43;1.95;;;;;;;1.72;81.54;97093.41;5016903;28;20037;-51
2023/01/16 05:33:51;;;;;;;4.28;2.15;;;;;;;1.74;81.72;97094.25;5021621;28;20073;-51
2023/01/16 05:36:18;;;;;;;2.80;1.17;;;;;;;1.74;81.11;97091.69;5012142;28;20108;-53
2023/01/16 05:38:46;;;;;;;4.32;0.95;;;;;;;1.73;81.89;97084.91;5023439;28;20128;-50
2023/01/16 05:41:13;;;;;;;3.72;1.50;;;;;;;1.78;80.93;97083.13;5019347;28;20065;-51
2023/01/16 05:43:39;;;;;;;6.03;2.22;;;;;;;1.83;80.63;97089.88;5018710;28;20076;-52
2023/01/16 05:46:06;;;;;;;6.32;2.00;;;;;;;1.83;81.54;97089.88;5019810;28;20068;-51
2023/01/16 05:48:35;;;;;;;12.43;2.58;;;;;;;1.90;81.55;97091.47;5014288;28;20137;-52
2023/01/16 05:51:03;;;;;;;12.73;2.60;;;;;;;1.93;81.80;97091.41;5014831;28;20046;-53
2023/01/16 05:53:30;;;;;;;7.53;1.52;;;;;;;1.96;81.55;97083.69;5013930;28;20045;-52
2023/01/16 05:55:58;;;;;;;10.77;2.88;;;;;;;1.98;80.79;97089.63;5015444;28;20085;-54
2023/01/16 05:58:25;;;;;;;4.40;2.17;;;;;;;2.00;82.16;97087.03;5016814;28;20112;-53
2023/01/16 06:00:51;;;;;;;9.15;2.97;;;;;;;2.05;81.01;97090.34;5016131;28;20624;-51
2023/01/16 06:03:18;;;;;;;12.05;3.67;;;;;;;2.08;82.10;97090.31;5014511;28;20053;-53
2023/01/16 06:05:44;;;;;;;7.85;2.90;;;;;;;2.06;81.18;97092.03;5013486;28;20045;-53
2023/01/16 06:08:11;;;;;;;11.23;2.58;;;;;;;2.12;82.05;97093.66;5018574;28;20111;-54
2023/01/16 06:10:38;;;;;;;6.75;1.55;;;;;;;2.13;81.54;97097.91;5014917;28;20072;-54
2023/01/16 06:13:04;;;;;;;7.25;2.92;;;;;;;2.17;82.32;97089.31;5013188;28;20104;-53
2023/01/16 06:15:31;;;;;;;11.52;3.28;;;;;;;2.18;82.93;97096.13;5009661;28;20072;-52
2023/01/16 06:17:58;;;;;;;10.88;3.85;;;;;;;2.25;81.95;97102.81;5021652;28;20132;-53
2023/01/16 06:20:24;;;;;;;10.52;2.67;;;;;;;2.26;83.49;97104.47;5017112;28;20058;-54
2023/01/16 06:22:51;;;;;;;8.02;3.80;;;;;;;2.31;83.05;97107.81;5008837;28;20095;-54
2023/01/16 06:25:17;;;;;;;10.07;3.00;;;;;;;2.35;82.59;97113.72;5019908;28;20136;-52
2023/01/16 06:27:49;;;;;;;10.82;3.58;;;;;;;2.39;83.12;97111.94;5021890;28;20083;-50
2023/01/16 06:30:16;;;;;;;5.90;2.38;;;;;;;2.41;82.15;97112.75;5015380;28;20045;-53
2023/01/16 06:32:44;;;;;;;7.95;2.85;;;;;;;2.44;82.77;97112.72;5019653;28;20073;-54
2023/01/16 06:35:10;;;;;;;7.10;2.63;;;;;;;2.44;83.26;97115.28;5016638;28;21582;-54
2023/01/16 06:37:37;;;;;;;11.20;3.97;;;;;;;2.54;83.14;97121.06;5016230;28;20046;-51
2023/01/16 06:40:04;;;;;;;14.07;4.28;;;;;;;2.57;83.00;97114.16;5003944;28;20099;-54
2023/01/16 06:42:31;;;;;;;8.93;3.72;;;;;;;2.60;81.76;97117.56;5020074;28;20500;-54
2023/01/16 06:44:57;;;;;;;12.38;4.10;;;;;;;2.66;81.66;97117.44;5018661;28;20509;-55
2023/01/16 06:47:24;;;;;;;18.13;4.75;;;;;;;2.70;82.52;97124.16;5012458;28;20386;-54
2023/01/16 06:49:50;;;;;;;8.00;3.00;;;;;;;2.71;82.87;97120.75;5016241;28;20115;-53
2023/01/16 06:52:17;;;;;;;12.75;5.30;;;;;;;2.73;82.56;97116.44;5014473;28;20678;-52
2023/01/16 06:54:44;;;;;;;8.18;3.88;;;;;;;2.74;82.50;97119.88;5010849;28;20069;-55
2023/01/16 06:57:10;;;;;;;18.85;6.50;;;;;;;2.77;82.05;97115.53;5014300;28;20045;-51
2023/01/16 06:59:37;;;;;;;13.02;3.92;;;;;;;2.78;83.20;97117.22;5017946;28;20073;-54
2023/01/16 07:02:03;;;;;;;16.02;5.80;;;;;;;2.82;82.06;97113.75;5011397;28;20452;-54
2023/01/16 07:04:30;;;;;;;7.65;4.25;;;;;;;2.86;82.26;97113.66;5016063;28;20045;-55
2023/01/16 07:06:56;;;;;;;10.73;3.58;;;;;;;2.85;82.46;97117.09;5009123;28;20111;-52
2023/01/16 07:09:29;;;;;;;12.60;5.40;;;;;;;2.88;83.13;97111.94;5010350;28;20104;-53
2023/01/16 07:11:56;;;;;;;14.38;5.07;;;;;;;2.89;83.13;97108.50;5017787;28;20080;-53
2023/01/16 07:22:45;;;;;;;11.65;4.72;;;;;;;2.90;82.66;97115.31;5030480;28;20041;-52
2023/01/16 07:25:15;;;;;;;18.45;6.90;;;;;;;2.92;83.32;97119.53;5009293;28;20045;-53
2023/01/16 07:27:43;;;;;;;14.18;5.75;;;;;;;2.93;82.59;97125.47;5029534;28;20052;-56
2023/01/16 07:30:10;;;;;;;13.32;5.13;;;;;;;2.92;82.82;97121.22;5015493;28;20119;-54
2023/01/16 07:32:38;;;;;;;13.10;4.85;;;;;;;2.91;82.27;97124.66;5015642;28;20045;-52
2023/01/16 07:35:05;;;;;;;10.40;4.63;;;;;;;2.89;83.29;97126.38;5011370;28;20057;-53
2023/01/16 07:37:32;;;;;;;11.85;4.13;;;;;;;2.88;82.87;97132.38;5012531;28;20590;-53
2023/01/16 07:39:58;;;;;;;9.98;4.97;;;;;;;2.87;82.33;97130.72;5007703;28;20725;-50
2023/01/16 07:42:25;;;;;;;13.43;5.70;;;;;;;2.86;83.13;97118.78;5011802;28;20084;-52
2023/01/16 07:44:51;;;;;;;9.43;4.55;;;;;;;2.84;82.56;97123.94;5008279;28;20494;-52
2023/01/16 07:47:18;;;;;;;16.33;5.55;;;;;;;2.83;82.54;97125.66;5009634;28;20098;-53
2023/01/16 07:49:45;;;;;;;7.88;3.90;;;;;;;2.79;82.47;97128.28;5008690;28;20062;-53
2023/01/16 07:52:11;;;;;;;16.75;6.13;;;;;;;2.80;82.66;97130.81;5005487;28;20158;-53
2023/01/16 07:54:40;;;;;;;10.65;4.57;;;;;;;2.76;82.11;97136.84;5008146;28;20647;-51
2023/01/16 07:57:07;;;;;;;7.47;2.85;;;;;;;2.75;82.99;97142.84;5013260;28;20130;-49
2023/01/16 07:59:33;;;;;;;13.80;4.47;;;;;;;2.78;82.83;97150.47;5009719;28;20095;-52
2023/01/16 08:02:01;;;;;;;11.05;3.58;;;;;;;2.70;82.86;97157.41;5006764;28;20141;-54
2023/01/16 08:04:28;;;;;;;9.32;4.43;;;;;;;2.70;83.00;97150.59;5009126;28;20489;-53
2023/01/16 08:06:57;;;;;;;10.80;4.47;;;;;;;2.66;81.65;97158.31;5008749;28;20564;-53
2023/01/16 08:09:24;;;;;;;14.00;5.63;;;;;;;2.67;82.34;97165.13;5009892;28;20085;-50
2023/01/16 08:11:50;;;;;;;9.68;3.47;;;;;;;2.71;81.54;97166.78;5013247;28;20049;-50
2023/01/16 08:14:17;;;;;;;9.65;4.15;;;;;;;2.74;81.53;97170.97;5007250;28;20136;-51
2023/01/16 08:16:44;;;;;;;7.32;3.83;;;;;;;2.63;81.91;97168.63;5012484;28;20092;-54
2023/01/16 08:19:11;;;;;;;12.25;2.85;;;;;;;2.60;83.06;97172.03;5011344;28;20060;-54
2023/01/16 08:21:37;;;;;;;16.77;4.68;;;;;;;2.72;82.39;97172.72;5020377;28;20038;-53
2023/01/16 08:24:05;;;;;;;12.27;5.38;;;;;;;2.69;82.72;97178.72;5022525;28;20049;-50
2023/01/16 08:26:31;;;;;;;15.23;3.28;;;;;;;2.67;81.72;97175.38;5010392;28;20045;-50
2023/01/16 08:29:01;;;;;;;15.00;5.60;;;;;;;2.71;81.31;97182.09;5010469;28;20132;-52
2023/01/16 08:31:28;;;;;;;8.82;4.13;;;;;;;2.71;82.10;97182.09;5009732;28;20545;-54
2023/01/16 08:33:55;;;;;;;12.65;4.93;;;;;;;2.74;81.71;97181.22;5008745;28;20050;-52
2023/01/16 08:36:22;;;;;;;13.88;4.72;;;;;;;2.74;82.47;97191.44;5015368;28;20394;-51
2023/01/16 08:38:49;;;;;;;24.73;8.35;;;;;;;2.79;81.48;97190.47;5011974;28;20045;-50
2023/01/16 08:52:35;;;;;;;12.02;6.03;;;;;;;2.75;82.69;97191.41;5014641;28;20123;-52
2023/01/16 08:55:03;;;;;;;20.55;6.38;;;;;;;2.74;82.32;97192.28;5014922;28;20056;-51
2023/01/16 08:57:30;;;;;;;17.60;5.57;;;;;;;2.75;81.78;97195.66;5014554;28;20049;-50
2023/01/16 08:59:57;;;;;;;17.52;6.45;;;;;;;2.78;82.30;97193.06;5013898;28;20750;-51
2023/01/16 09:02:25;;;;;;;13.07;6.05;;;;;;;2.73;82.73;97198.25;5016947;28;20057;-52
2023/01/16 09:04:53;;;;;;;19.05;6.85;;;;;;;2.76;82.89;97205.88;5020689;28;20052;-50
2023/01/16 09:07:21;;;;;;;19.40;6.88;;;;;;;2.79;82.27;97210.94;5014454;28;20045;-52
2023/01/16 09:09:47;;;;;;;14.40;4.72;;;;;;;2.68;82.40;97212.81;5015901;28;20131;-52
2023/01/16 09:15:01;;;;;;;12.57;4.90;;;;;;;2.71;82.26;97217.88;5020659;28;20567;-52
2023/01/16 09:17:30;;;;;;;12.90;4.63;;;;;;;2.72;81.64;97219.56;5021209;28;20041;-50
2023/01/16 09:19:58;;;;;;;8.93;3.53;;;;;;;2.76;81.89;97226.31;5020358;28;20099;-50
2023/01/16 09:22:27;;;;;;;19.83;4.45;;;;;;;2.79;82.38;97231.38;5018206;28;20045;-51
2023/01/16 09:24:54;;;;;;;15.25;5.90;;;;;;;2.71;82.36;97230.66;5025790;28;20056;-52
2023/01/16 09:27:22;;;;;;;10.43;5.05;;;;;;;2.70;81.28;97241.75;5014612;28;20045;-50
2023/01/16 09:29:49;;;;;;;5.88;2.58;;;;;;;2.69;80.95;97227.28;5018518;28;20100;-49
2023/01/16 09:32:18;;;;;;;9.02;3.78;;;;;;;2.79;80.73;97236.50;5017285;28;20060;-51
2023/01/16 09:34:45;;;;;;;5.95;2.65;;;;;;;2.85;81.20;97232.13;5018366;28;20049;-52
2023/01/16 09:37:12;;;;;;;6.05;2.58;;;;;;;2.96;81.24;97245.59;5019300;28;20057;-50
2023/01/16 09:39:38;;;;;;;5.32;2.60;;;;;;;2.96;81.20;97245.59;5020330;28;20095;-49
2023/01/16 09:44:55;;;;;;;11.90;3.53;;;;;;;3.06;80.30;97242.00;5040437;27;20760;-49
2023/01/16 09:47:24;;;;;;;7.07;3.47;;;;;;;3.08;80.26;97235.13;5023073;28;20144;-54
2023/01/16 09:49:56;;;;;;;10.00;3.72;;;;;;;3.13;81.00;97244.44;5027271;28;20505;-54
2023/01/16 10:01:10;;;;;;;6.70;3.05;;;;;;;3.52;80.59;97247.16;5027090;28;20049;-56
2023/01/16 10:03:42;;;;;;;12.57;3.88;;;;;;;3.54;80.30;97249.66;5036119;28;20049;-53
2023/01/16 10:11:57;;;;;;;9.52;4.28;;;;;;;3.57;79.31;97254.72;5046704;28;20412;-51
2023/01/16 10:17:24;;;;;;;8.68;3.25;;;;;;;3.65;78.91;97262.25;5018811;28;20402;-53
2023/01/16 10:28:12;;;;;;;9.63;3.60;;;;;;;3.88;78.42;97266.06;5039544;28;20774;-53
2023/01/16 10:31:03;;;;;;;3.35;2.15;;;;;;;3.69;78.61;97269.00;5016769;28;20104;-49
2023/01/16 10:33:39;;;;;;;4.10;1.23;;;;;;;3.71;78.54;97269.78;5017566;28;20128;-49
2023/01/16 10:36:20;;;;;;;5.78;3.60;;;;;;;3.70;79.26;97266.41;5018982;28;20046;-49
2023/01/16 10:38:55;;;;;;;9.40;4.10;;;;;;;3.71;78.93;97267.22;5017719;28;20064;-52
2023/01/16 10:50:16;;;;;;;5.25;1.38;;;;;;;3.74;78.97;97272.31;5012627;28;20053;-50
2023/01/16 10:53:02;;;;;;;7.00;2.67;;;;;;;3.69;78.21;97272.38;5017209;28;20412;-50
2023/01/16 10:55:30;;;;;;;7.20;1.80;;;;;;;3.71;78.57;97277.47;5019491;28;20046;-50
2023/01/16 10:58:00;;;;;;;3.28;1.23;;;;;;;3.63;78.58;97272.53;5017171;28;20503;-50
2023/01/16 11:00:33;;;;;;;4.43;2.42;;;;;;;3.60;77.86;97270.88;5017803;28;20046;-51
2023/01/16 11:03:08;;;;;;;2.47;1.33;;;;;;;3.63;77.67;97279.34;5017160;28;20042;-50
2023/01/16 11:05:36;;;;;;;3.75;1.85;;;;;;;3.62;78.01;97277.66;5017930;28;20428;-50
2023/01/16 11:08:10;;;;;;;2.75;1.98;;;;;;;3.62;78.41;97277.66;5009830;28;20041;-52
2023/01/16 11:10:39;;;;;;;7.03;1.98;;;;;;;3.63;77.71;97281.91;5012634;28;20054;-50
2023/01/16 11:18:42;;;;;;;7.15;1.58;;;;;;;3.63;77.84;97275.09;5049056;27;20893;-50
2023/01/16 11:21:26;;;;;;;3.63;2.08;;;;;;;3.63;77.33;97279.34;5020697;28;20046;-49
2023/01/16 11:24:10;;;;;;;9.93;1.85;;;;;;;3.65;78.26;97267.38;4992742;28;20133;-50
2023/01/16 11:26:37;;;;;;;3.22;1.35;;;;;;;3.67;77.96;97265.63;5016963;28;20064;-50
2023/01/16 11:29:04;;;;;;;7.70;2.25;;;;;;;3.69;77.64;97274.13;5018266;28;20057;-51
2023/01/16 11:31:31;;;;;;;5.43;1.42;;;;;;;3.68;78.36;97275.00;5023503;28;20061;-50
2023/01/16 11:34:02;;;;;;;3.17;1.00;;;;;;;3.68;77.61;97277.56;5017432;28;20136;-49
2023/01/16 11:36:32;;;;;;;4.10;1.67;;;;;;;3.72;76.88;97276.63;5012891;28;20397;-50
2023/01/16 11:39:00;;;;;;;3.95;1.73;;;;;;;3.68;77.64;97280.13;5020461;28;20298;-50
2023/01/16 11:41:47;;;;;;;4.20;1.75;;;;;;;3.69;77.76;97274.13;5017442;28;20386;-52
2023/01/16 11:47:14;;;;;;;4.03;1.60;;;;;;;3.76;76.88;97270.56;5006962;28;20405;-49
2023/01/16 11:49:46;;;;;;;3.03;1.52;;;;;;;3.78;77.48;97262.84;5016501;28;20069;-52
2023/01/16 11:52:26;;;;;;;3.78;1.67;;;;;;;3.76;76.01;97255.22;5018173;28;20144;-51
2023/01/16 12:03:14;;;;;;;5.72;2.10;;;;;;;3.95;75.84;97270.19;5122159;27;21249;-51
2023/01/16 12:06:01;;;;;;;4.60;2.35;;;;;;;4.00;76.50;97268.38;5059310;28;20056;-53
2023/01/16 12:11:08;;;;;;;2.85;2.53;;;;;;;4.08;76.57;97260.50;5030156;27;20414;-53
2023/01/16 12:21:59;;;;;;;10.70;2.22;;;;;;;4.07;76.24;97262.25;5049184;27;20901;-53
2023/01/16 12:33:18;;;;;;;8.13;2.10;;;;;;;4.16;77.01;97258.66;5064932;27;20407;-50
2023/01/16 12:36:12;;;;;;;6.05;2.72;;;;;;;4.12;77.11;97259.56;5015622;28;20068;-50
2023/01/16 12:47:41;;;;;;;7.80;3.75;;;;;;;4.53;76.12;97256.97;5020953;28;20413;-52
2023/01/16 12:58:33;;;;;;;3.08;1.98;;;;;;;4.42;75.12;97256.38;5039430;27;20390;-50
2023/01/16 13:09:21;;;;;;;4.95;2.03;;;;;;;4.45;74.62;97244.31;5078996;27;20927;-50
2023/01/16 13:14:50;;;;;;;7.10;1.65;;;;;;;4.52;74.71;97249.31;5075709;28;20052;-53
2023/01/16 13:17:23;;;;;;;1.63;1.52;;;;;;;4.62;74.04;97266.16;5056729;28;20110;-52
2023/01/16 13:20:01;;;;;;;1.75;0.65;;;;;;;4.66;73.86;97272.06;5059023;28;20045;-52
2023/01/16 13:22:39;;;;;;;4.00;1.90;;;;;;;4.76;73.81;97264.13;5070048;28;20049;-50
2023/01/16 13:25:17;;;;;;;2.35;1.95;;;;;;;4.70;73.68;97248.03;5075056;28;20427;-52
2023/01/16 13:27:51;;;;;;;1.70;1.20;;;;;;;4.68;74.13;97275.41;5073780;28;20531;-52
2023/01/16 13:30:18;;;;;;;0.95;0.60;;;;;;;4.28;72.90;97284.84;5072063;28;20547;-53
2023/01/16 13:32:54;;;;;;;1.95;1.52;;;;;;;3.85;72.98;97306.22;5074728;28;20454;-52
2023/01/16 13:41:17;;;;;;;2.03;1.92;;;;;;;3.05;73.97;97314.50;5025842;28;20399;-53
2023/01/16 13:46:38;;;;;;;2.00;1.83;;;;;;;2.82;75.58;97313.13;4997285;28;20054;-51
2023/01/16 13:49:05;;;;;;;4.35;2.88;;;;;;;2.81;75.56;97316.53;4996148;28;20054;-49
2023/01/16 13:51:42;;;;;;;2.40;0.75;;;;;;;2.75;75.09;97319.22;5005138;28;20458;-50
2023/01/16 13:54:16;;;;;;;2.47;1.98;;;;;;;2.65;75.60;97326.19;4997740;28;20081;-51
2023/01/16 13:56:54;;;;;;;3.22;2.92;;;;;;;2.53;77.33;97332.28;4998026;28;20058;-52
2023/01/16 14:02:24;;;;;;;3.97;1.52;;;;;;;2.45;76.78;97339.22;5027901;27;20965;-50
2023/01/16 14:05:16;;;;;;;2.60;1.67;;;;;;;2.37;76.96;97351.25;5014237;28;20496;-51
2023/01/16 14:13:37;;;;;;;9.15;3.63;;;;;;;2.37;76.82;97338.50;5033572;27;20407;-50
2023/01/16 14:24:18;;;;;;;3.50;1.75;;;;;;;2.25;77.85;97337.78;5046844;28;20404;-51
2023/01/16 14:29:35;;;;;;;2.95;1.45;;;;;;;2.31;76.46;97358.16;5005880;27;20902;-49
2023/01/16 14:32:20;;;;;;;2.08;1.08;;;;;;;2.19;77.15;97348.06;4984071;28;20047;-52
2023/01/16 14:37:35;;;;;;;3.15;1.55;;;;;;;2.23;77.21;97356.56;5031611;28;20410;-50
2023/01/16 14:40:18;;;;;;;3.05;2.42;;;;;;;2.22;76.15;97363.34;5016039;28;20045;-51
2023/01/16 14:57:33;;;;;;;1.85;0.82;;;;;;;2.17;75.87;97360.84;5008124;28;20663;-50
2023/01/16 15:00:09;;;;;;;1.95;1.08;;;;;;;2.17;76.49;97375.34;5007757;28;20430;-50
2023/01/16 15:02:43;;;;;;;5.60;0.80;;;;;;;2.18;77.16;97366.81;5003126;28;20046;-52
2023/01/16 15:05:17;;;;;;;1.13;0.47;;;;;;;2.15;76.95;97372.81;4998653;28;20084;-47
2023/01/16 15:07:48;;;;;;;2.40;1.27;;;;;;;2.16;75.97;97374.50;5001869;28;20127;-50
2023/01/16 15:24:24;;;;;;;1.70;1.52;;;;;;;1.95;75.41;97379.88;5010028;28;20046;-48
2023/01/16 15:32:16;;;;;;;1.38;1.25;;;;;;;2.16;71.72;97389.00;5032470;28;20414;-48
2023/01/16 15:34:44;;;;;;;1.10;0.40;;;;;;;1.89;70.73;97391.81;5001607;28;20042;-48
2023/01/16 15:37:20;;;;;;;1.00;0.65;;;;;;;1.79;70.62;97392.78;5009924;28;20088;-49
2023/01/16 15:39:49;;;;;;;0.40;0.32;;;;;;;1.72;70.41;97394.53;5009755;28;20051;-49
2023/01/16 15:50:56;;;;;;;1.05;0.70;;;;;;;1.61;69.65;97411.66;5073972;27;20404;-50
2023/01/16 15:53:30;;;;;;;0.50;0.22;;;;;;;1.57;69.65;97410.00;5007374;28;20096;-52
2023/01/16 15:56:03;;;;;;;1.48;0.50;;;;;;;1.50;69.58;97404.97;4995159;28;20116;-50
2023/01/16 15:58:32;;;;;;;0.75;0.22;;;;;;;1.51;70.33;97408.34;4997377;28;20054;-49